createdAt,value
2023-12-27T00:02:12.025Z,5.22
2023-12-27T00:04:40.765Z,4.32
2023-12-27T00:07:09.352Z,6.13
2023-12-27T00:09:37.993Z,6.07
2023-12-27T00:12:08.510Z,6.03
2023-12-27T00:14:36.971Z,4.20
2023-12-27T00:17:05.653Z,3.58
2023-12-27T00:19:34.791Z,4.53
2023-12-27T00:22:03.333Z,3.60
2023-12-27T00:24:31.826Z,4.80
2023-12-27T00:27:00.388Z,3.47
2023-12-27T00:29:30.198Z,3.22
2023-12-27T00:31:58.662Z,3.67
2023-12-27T00:34:27.174Z,5.18
2023-12-27T00:36:55.633Z,4.32
2023-12-27T00:39:25.654Z,4.60
2023-12-27T00:41:54.202Z,4.90
2023-12-27T00:44:22.695Z,4.03
2023-12-27T00:46:52.615Z,5.65
2023-12-27T00:49:21.132Z,4.03
2023-12-27T00:51:49.646Z,3.97
2023-12-27T00:54:19.706Z,4.15
2023-12-27T00:56:48.191Z,5.35
2023-12-27T00:59:16.670Z,6.10
2023-12-27T01:01:45.512Z,4.53
2023-12-27T01:04:15.766Z,3.78
2023-12-27T01:06:44.305Z,3.80
2023-12-27T01:09:12.777Z,5.30
2023-12-27T01:11:41.233Z,4.80
2023-12-27T01:14:09.664Z,5.60
2023-12-27T01:16:38.141Z,3.70
2023-12-27T01:19:06.837Z,3.70
2023-12-27T01:21:36.727Z,5.90
2023-12-27T01:24:05.546Z,6.22
2023-12-27T01:26:34.096Z,4.65
2023-12-27T01:29:02.802Z,4.10
2023-12-27T01:31:31.349Z,4.88
2023-12-27T01:34:08.419Z,5.80
2023-12-27T01:36:42.480Z,6.30
2023-12-27T01:39:10.940Z,5.85
2023-12-27T01:41:40.096Z,6.75
2023-12-27T01:44:08.578Z,3.30
2023-12-27T01:46:37.405Z,4.78
2023-12-27T01:49:05.159Z,4.97
2023-12-27T01:51:33.821Z,5.32
2023-12-27T01:54:04.052Z,4.45
2023-12-27T01:56:32.950Z,4.75
2023-12-27T01:59:02.002Z,4.95
2023-12-27T02:01:30.778Z,4.03
2023-12-27T02:03:59.707Z,5.65
2023-12-27T02:06:28.325Z,4.38
2023-12-27T02:08:56.880Z,5.60
2023-12-27T02:11:26.701Z,5.53
2023-12-27T02:13:55.195Z,4.82
2023-12-27T02:16:23.893Z,4.50
2023-12-27T02:18:52.753Z,7.18
2023-12-27T02:21:21.285Z,6.30
2023-12-27T02:23:51.559Z,5.72
2023-12-27T02:26:21.484Z,4.47
2023-12-27T02:28:49.900Z,5.25
2023-12-27T02:31:18.430Z,5.20
2023-12-27T02:33:47.179Z,5.53
2023-12-27T02:36:15.794Z,5.15
2023-12-27T02:38:44.282Z,4.75
2023-12-27T02:41:12.844Z,5.05
2023-12-27T02:43:42.695Z,5.13
2023-12-27T02:46:11.138Z,5.30
2023-12-27T02:48:39.798Z,4.97
2023-12-27T02:51:09.051Z,5.13
2023-12-27T02:53:37.516Z,5.28
2023-12-27T02:56:06.175Z,4.82
2023-12-27T02:58:34.697Z,5.22
2023-12-27T03:01:04.668Z,4.30
2023-12-27T03:03:33.263Z,5.45
2023-12-27T03:06:01.694Z,5.05
2023-12-27T03:08:30.158Z,5.22
2023-12-27T03:10:58.651Z,5.30
2023-12-27T03:13:27.911Z,5.63
2023-12-27T03:15:56.386Z,5.05
2023-12-27T03:18:26.244Z,5.07
2023-12-27T03:20:54.782Z,4.45
2023-12-27T03:23:23.486Z,4.95
2023-12-27T03:25:51.991Z,5.25
2023-12-27T03:28:20.591Z,4.90
2023-12-27T03:30:49.106Z,5.25
2023-12-27T03:33:17.773Z,4.85
2023-12-27T03:35:47.645Z,5.20
2023-12-27T03:38:16.080Z,4.57
2023-12-27T03:40:44.709Z,4.85
2023-12-27T03:43:13.337Z,4.75
2023-12-27T03:45:42.110Z,4.63
2023-12-27T03:48:10.963Z,4.68
2023-12-27T03:50:39.571Z,4.85
2023-12-27T03:53:09.456Z,5.90
2023-12-27T03:55:38.011Z,4.95
2023-12-27T03:58:06.435Z,5.20
2023-12-27T04:00:34.913Z,4.68
2023-12-27T04:03:03.540Z,5.30
2023-12-27T04:05:32.112Z,5.57
2023-12-27T04:08:00.850Z,6.00
2023-12-27T04:10:32.597Z,5.93
2023-12-27T04:13:01.281Z,5.97
2023-12-27T04:15:30.073Z,6.78
2023-12-27T04:17:58.824Z,5.65
2023-12-27T04:20:27.507Z,6.80
2023-12-27T04:22:55.953Z,6.70
2023-12-27T04:25:24.410Z,6.05
2023-12-27T04:27:54.377Z,7.03
2023-12-27T04:30:22.970Z,6.40
2023-12-27T04:32:51.524Z,6.43
2023-12-27T04:35:20.137Z,6.43
2023-12-27T04:37:48.624Z,7.00
2023-12-27T04:40:17.234Z,6.72
2023-12-27T04:42:45.713Z,6.32
2023-12-27T04:45:15.608Z,7.18
2023-12-27T04:47:44.237Z,6.97
2023-12-27T04:50:12.910Z,6.63
2023-12-27T04:52:41.479Z,6.97
2023-12-27T04:55:10.394Z,7.03
2023-12-27T04:57:39.656Z,7.50
2023-12-27T05:00:09.176Z,7.03
2023-12-27T05:02:39.020Z,7.47
2023-12-27T05:05:08.671Z,8.27
2023-12-27T05:07:37.126Z,8.45
2023-12-27T05:10:05.760Z,8.20
2023-12-27T05:12:34.375Z,7.80
2023-12-27T05:15:03.131Z,8.23
2023-12-27T05:17:31.595Z,8.32
2023-12-27T05:20:01.429Z,8.07
2023-12-27T05:22:35.013Z,8.63
2023-12-27T05:25:04.184Z,8.65
2023-12-27T05:27:32.691Z,8.13
2023-12-27T05:30:01.170Z,8.50
2023-12-27T05:32:29.774Z,7.97
2023-12-27T05:34:58.354Z,8.75
2023-12-27T05:37:28.161Z,7.90
2023-12-27T05:39:56.592Z,8.35
2023-12-27T05:42:25.393Z,7.50
2023-12-27T05:44:53.944Z,8.07
2023-12-27T05:47:22.539Z,8.02
2023-12-27T05:49:51.009Z,8.10
2023-12-27T05:52:19.507Z,8.40
2023-12-27T05:54:49.299Z,8.60
2023-12-27T05:57:17.821Z,7.72
2023-12-27T05:59:47.068Z,7.93
2023-12-27T06:02:15.198Z,7.47
2023-12-27T06:04:43.297Z,7.47
2023-12-27T06:07:11.407Z,7.45
2023-12-27T06:09:39.603Z,6.72
2023-12-27T06:12:09.650Z,6.80
2023-12-27T06:14:40.942Z,5.80
2023-12-27T06:17:09.128Z,6.50
2023-12-27T06:19:38.220Z,6.55
2023-12-27T06:22:06.458Z,6.72
2023-12-27T06:24:34.654Z,7.05
2023-12-27T06:27:02.894Z,6.95
2023-12-27T06:29:32.410Z,7.40
2023-12-27T06:32:00.583Z,6.63
2023-12-27T06:34:28.863Z,5.70
2023-12-27T06:36:57.049Z,6.57
2023-12-27T06:39:25.281Z,6.75
2023-12-27T06:41:53.433Z,6.10
2023-12-27T06:44:21.575Z,5.05
2023-12-27T06:46:51.487Z,5.45
2023-12-27T06:49:19.684Z,4.40
2023-12-27T06:51:47.932Z,4.53
2023-12-27T06:54:16.067Z,4.32
2023-12-27T06:56:44.205Z,4.60
2023-12-27T06:59:12.391Z,4.22
2023-12-27T07:01:40.812Z,5.15
2023-12-27T07:04:10.442Z,4.25
2023-12-27T07:06:40.289Z,4.32
2023-12-27T07:09:10.827Z,3.63
2023-12-27T07:11:39.779Z,4.03
2023-12-27T07:14:08.719Z,3.22
2023-12-27T07:16:36.883Z,3.08
2023-12-27T07:19:05.207Z,3.72
2023-12-27T07:21:34.876Z,2.55
2023-12-27T07:24:03.115Z,3.08
2023-12-27T07:26:34.030Z,2.30
2023-12-27T07:29:02.213Z,1.80
2023-12-27T07:31:30.371Z,1.98
2023-12-27T07:33:58.672Z,1.95
2023-12-27T07:36:26.881Z,1.65
2023-12-27T07:38:56.388Z,1.65
2023-12-27T07:41:24.655Z,1.88
2023-12-27T07:43:52.764Z,1.75
2023-12-27T07:46:20.860Z,1.98
2023-12-27T07:48:49.374Z,2.10
2023-12-27T07:51:17.583Z,1.60
2023-12-27T07:53:45.770Z,1.80
2023-12-27T07:56:16.873Z,1.50
2023-12-27T07:58:45.067Z,1.95
2023-12-27T08:01:13.271Z,2.05
2023-12-27T08:03:41.741Z,1.58
2023-12-27T08:06:10.091Z,1.45
2023-12-27T08:08:38.381Z,1.40
2023-12-27T08:11:07.107Z,1.23
2023-12-27T08:13:37.752Z,1.67
2023-12-27T08:16:07.456Z,1.58
2023-12-27T08:18:36.791Z,1.17
2023-12-27T08:21:05.997Z,1.50
2023-12-27T08:23:37.078Z,1.40
2023-12-27T08:26:08.210Z,1.30
2023-12-27T08:28:38.394Z,1.30
2023-12-27T08:31:07.310Z,1.33
2023-12-27T08:33:36.893Z,1.30
2023-12-27T08:36:05.900Z,1.63
2023-12-27T08:38:34.822Z,1.58
2023-12-27T08:41:04.416Z,2.00
2023-12-27T08:43:34.533Z,1.48
2023-12-27T08:46:04.127Z,1.58
2023-12-27T08:48:34.025Z,1.55
2023-12-27T08:51:04.982Z,1.52
2023-12-27T08:53:33.424Z,1.70
2023-12-27T08:56:01.826Z,1.70
2023-12-27T08:58:30.008Z,1.42
2023-12-27T09:00:59.697Z,1.70
2023-12-27T09:03:29.436Z,1.80
2023-12-27T09:05:57.979Z,2.22
2023-12-27T09:08:26.162Z,1.75
2023-12-27T09:10:54.287Z,2.20
2023-12-27T09:13:22.394Z,1.80
2023-12-27T09:15:50.783Z,1.70
2023-12-27T09:18:19.110Z,1.90
2023-12-27T09:20:48.743Z,2.03
2023-12-27T09:23:17.032Z,1.80
2023-12-27T09:25:45.117Z,1.92
2023-12-27T09:28:13.269Z,1.85
2023-12-27T09:30:41.707Z,1.85
2023-12-27T09:33:10.423Z,2.10
2023-12-27T09:35:39.106Z,2.28
2023-12-27T09:38:08.980Z,1.80
2023-12-27T09:40:37.296Z,2.53
2023-12-27T09:43:07.116Z,2.15
2023-12-27T09:45:37.269Z,2.10
2023-12-27T09:48:09.066Z,2.50
2023-12-27T09:50:37.766Z,2.60
2023-12-27T09:53:11.449Z,1.92
2023-12-27T09:55:40.004Z,2.28
2023-12-27T09:58:09.019Z,2.33
2023-12-27T10:00:40.043Z,2.22
2023-12-27T10:03:12.381Z,2.63
2023-12-27T10:05:48.918Z,2.05
2023-12-27T10:08:19.077Z,2.65
2023-12-27T10:10:48.725Z,3.13
2023-12-27T10:13:17.329Z,2.50
2023-12-27T10:15:45.706Z,2.13
2023-12-27T10:18:14.014Z,2.90
2023-12-27T10:20:44.844Z,2.83
2023-12-27T10:23:13.211Z,2.83
2023-12-27T10:25:44.311Z,3.00
2023-12-27T10:28:12.448Z,2.97
2023-12-27T10:30:40.653Z,2.88
2023-12-27T10:33:10.152Z,2.15
2023-12-27T10:35:40.198Z,2.97
2023-12-27T10:38:08.829Z,2.97
2023-12-27T10:40:39.166Z,3.03
2023-12-27T10:43:09.130Z,2.20
2023-12-27T10:45:38.153Z,3.10
2023-12-27T10:48:07.774Z,2.80
2023-12-27T10:50:36.939Z,2.97
2023-12-27T10:53:07.883Z,2.80
2023-12-27T10:55:37.829Z,3.00
2023-12-27T10:58:18.410Z,2.92
2023-12-27T11:00:48.642Z,3.35
2023-12-27T11:03:17.040Z,2.65
2023-12-27T11:05:47.335Z,2.35
2023-12-27T11:08:17.308Z,2.88
2023-12-27T11:10:47.849Z,2.72
2023-12-27T11:13:18.543Z,2.90
2023-12-27T11:15:48.386Z,2.78
2023-12-27T11:18:17.133Z,2.75
2023-12-27T11:20:48.612Z,3.50
2023-12-27T11:23:16.884Z,2.88
2023-12-27T11:25:45.379Z,2.20
2023-12-27T11:28:14.228Z,2.58
2023-12-27T11:30:47.350Z,2.65
2023-12-27T11:33:20.877Z,3.08
2023-12-27T11:35:49.703Z,2.42
2023-12-27T11:38:19.965Z,2.97
2023-12-27T11:40:48.371Z,2.22
2023-12-27T11:43:23.976Z,3.00
2023-12-27T11:46:03.420Z,2.80
2023-12-27T11:48:35.488Z,2.83
2023-12-27T11:51:04.876Z,4.70
2023-12-27T11:53:33.516Z,3.30
2023-12-27T11:56:03.729Z,2.67
2023-12-27T11:58:33.785Z,3.08
2023-12-27T12:01:31.511Z,2.50
2023-12-27T12:04:38.929Z,3.00
2023-12-27T12:07:46.768Z,2.80
2023-12-27T12:10:28.293Z,3.10
2023-12-27T12:12:59.327Z,2.30
2023-12-27T12:15:31.477Z,3.00
2023-12-27T12:18:02.478Z,2.60
2023-12-27T12:20:32.010Z,3.08
2023-12-27T12:23:01.916Z,3.50
2023-12-27T12:25:30.069Z,9.52
2023-12-27T12:28:00.663Z,3.33
2023-12-27T12:30:29.270Z,2.90
2023-12-27T12:32:57.663Z,3.20
2023-12-27T12:35:27.586Z,2.53
2023-12-27T12:37:56.136Z,2.33
2023-12-27T12:40:24.700Z,2.60
2023-12-27T12:42:53.961Z,2.50
2023-12-27T12:45:22.337Z,2.25
2023-12-27T12:47:51.996Z,2.97
2023-12-27T12:50:20.698Z,3.47
2023-12-27T12:52:51.641Z,2.42
2023-12-27T12:55:20.761Z,2.25
2023-12-27T12:57:49.671Z,2.50
2023-12-27T13:00:23.739Z,2.38
2023-12-27T13:02:52.196Z,2.22
2023-12-27T13:05:20.367Z,2.63
2023-12-27T13:07:50.178Z,2.80
2023-12-27T13:10:21.107Z,2.28
2023-12-27T13:12:49.229Z,2.83
2023-12-27T13:15:21.175Z,1.80
2023-12-27T13:17:50.150Z,1.90
2023-12-27T13:20:18.364Z,2.25
2023-12-27T13:22:46.574Z,2.42
2023-12-27T13:25:17.989Z,2.70
2023-12-27T13:27:55.289Z,1.95
2023-12-27T13:30:26.924Z,2.13
2023-12-27T13:32:55.244Z,1.88
2023-12-27T13:35:23.406Z,2.47
2023-12-27T13:37:51.575Z,2.33
2023-12-27T13:40:21.061Z,2.22
2023-12-27T13:42:49.263Z,1.70
2023-12-27T13:45:17.678Z,2.47
2023-12-27T13:47:45.907Z,2.30
2023-12-27T13:50:14.125Z,1.90
2023-12-27T13:52:42.270Z,2.13
2023-12-27T13:55:11.908Z,2.28
2023-12-27T13:57:41.636Z,1.60
2023-12-27T14:00:15.883Z,2.15
2023-12-27T14:02:45.025Z,2.20
2023-12-27T14:05:13.238Z,2.10
2023-12-27T14:07:41.462Z,2.00
2023-12-27T14:10:10.426Z,2.10
2023-12-27T14:12:44.245Z,2.30
2023-12-27T14:15:14.788Z,2.50
2023-12-27T14:17:46.809Z,2.05
2023-12-27T14:20:15.380Z,2.03
2023-12-27T14:22:44.191Z,2.30
2023-12-27T14:25:13.084Z,2.00
2023-12-27T14:27:41.480Z,2.45
2023-12-27T14:30:11.415Z,2.10
2023-12-27T14:32:41.221Z,2.15
2023-12-27T14:35:11.081Z,2.10
2023-12-27T14:37:40.078Z,1.77
2023-12-27T14:40:09.546Z,1.95
2023-12-27T14:42:37.829Z,2.35
2023-12-27T14:45:06.787Z,3.53
2023-12-27T14:47:35.046Z,3.33
2023-12-27T14:50:04.693Z,3.42
2023-12-27T14:52:32.854Z,2.75
2023-12-27T14:55:01.056Z,3.58
2023-12-27T14:57:29.260Z,9.35
2023-12-27T14:59:57.432Z,2.80
2023-12-27T15:02:25.561Z,4.43
2023-12-27T15:04:53.754Z,5.50
2023-12-27T15:07:23.315Z,2.30
2023-12-27T15:09:51.600Z,3.03
2023-12-27T15:12:19.873Z,2.50
2023-12-27T15:14:48.091Z,2.88
2023-12-27T15:17:16.481Z,2.08
2023-12-27T15:19:44.756Z,2.15
2023-12-27T15:22:12.963Z,2.38
2023-12-27T15:24:43.119Z,1.75
2023-12-27T15:27:11.858Z,2.10
2023-12-27T15:29:40.209Z,2.10
2023-12-27T15:32:08.719Z,2.15
2023-12-27T15:34:36.937Z,1.70
2023-12-27T15:37:05.656Z,2.08
2023-12-27T15:39:33.903Z,1.88
2023-12-27T15:42:03.672Z,1.70
2023-12-27T15:44:32.369Z,1.80
2023-12-27T15:47:02.324Z,2.03
2023-12-27T15:49:30.844Z,1.40
2023-12-27T15:51:59.631Z,1.80
2023-12-27T15:54:28.072Z,1.70
2023-12-27T15:56:57.079Z,1.60
2023-12-27T15:59:26.641Z,1.77
2023-12-27T16:01:55.454Z,1.85
2023-12-27T16:04:24.604Z,1.80
2023-12-27T16:06:54.672Z,1.73
2023-12-27T16:09:22.927Z,1.60
2023-12-27T16:11:51.386Z,1.88
2023-12-27T16:14:19.564Z,1.70
2023-12-27T16:16:49.047Z,1.98
2023-12-27T16:19:17.347Z,1.77
2023-12-27T16:21:45.996Z,1.70
2023-12-27T16:24:15.000Z,1.90
2023-12-27T16:26:43.319Z,1.98
2023-12-27T16:29:12.254Z,1.48
2023-12-27T16:31:40.540Z,2.40
2023-12-27T16:34:10.280Z,1.60
2023-12-27T16:36:38.575Z,2.03
2023-12-27T16:39:06.737Z,1.80
2023-12-27T16:41:36.995Z,1.85
2023-12-27T16:44:05.459Z,1.92
2023-12-27T16:46:36.437Z,2.00
2023-12-27T16:49:05.200Z,1.83
2023-12-27T16:51:34.886Z,3.47
2023-12-27T16:54:03.069Z,1.55
2023-12-27T16:56:31.302Z,4.82
2023-12-27T16:59:01.981Z,2.28
2023-12-27T17:01:30.159Z,3.28
2023-12-27T17:03:58.397Z,3.33
2023-12-27T17:06:27.626Z,3.30
2023-12-27T17:08:57.182Z,4.60
2023-12-27T17:11:25.340Z,5.07
2023-12-27T17:13:53.457Z,2.47
2023-12-27T17:16:21.634Z,4.82
2023-12-27T17:18:50.816Z,4.55
2023-12-27T17:21:21.370Z,4.07
2023-12-27T17:23:49.883Z,3.17
2023-12-27T17:26:19.388Z,3.50
2023-12-27T17:28:47.533Z,3.33
2023-12-27T17:31:15.747Z,2.97
2023-12-27T17:33:44.163Z,4.85
2023-12-27T17:36:12.419Z,3.03
2023-12-27T17:38:40.525Z,2.70
2023-12-27T17:41:08.620Z,3.00
2023-12-27T17:43:41.313Z,4.13
2023-12-27T17:46:09.497Z,3.58
2023-12-27T17:48:39.781Z,3.13
2023-12-27T17:51:08.027Z,3.47
2023-12-27T17:53:36.232Z,3.55
2023-12-27T17:56:04.414Z,3.25
2023-12-27T17:58:32.526Z,2.67
2023-12-27T18:01:02.146Z,2.17
2023-12-27T18:03:30.435Z,3.58
2023-12-27T18:05:58.695Z,2.58
2023-12-27T18:08:26.856Z,2.00
2023-12-27T18:10:54.974Z,2.20
2023-12-27T18:13:23.175Z,1.80
2023-12-27T18:15:51.567Z,2.33
2023-12-27T18:18:21.384Z,2.05
2023-12-27T18:20:49.583Z,2.20
2023-12-27T18:23:17.704Z,1.65
2023-12-27T18:25:46.775Z,1.50
2023-12-27T18:28:14.982Z,1.48
2023-12-27T18:30:43.227Z,1.55
2023-12-27T18:33:12.662Z,2.25
2023-12-27T18:35:42.273Z,1.63
2023-12-27T18:38:11.021Z,1.80
2023-12-27T18:40:40.839Z,1.67
2023-12-27T18:43:09.230Z,1.70
2023-12-27T18:45:37.844Z,1.90
2023-12-27T18:48:09.344Z,1.95
2023-12-27T18:50:39.655Z,2.30
2023-12-27T18:53:09.253Z,2.72
2023-12-27T18:55:37.393Z,2.42
2023-12-27T18:58:08.356Z,2.47
2023-12-27T19:00:36.859Z,1.92
2023-12-27T19:03:05.584Z,1.70
2023-12-27T19:05:34.053Z,2.10
2023-12-27T19:08:02.235Z,1.58
2023-12-27T19:10:32.018Z,1.80
2023-12-27T19:13:00.616Z,1.85
2023-12-27T19:15:28.946Z,1.85
2023-12-27T19:17:57.206Z,2.30
2023-12-27T19:20:25.528Z,1.63
2023-12-27T19:22:53.651Z,2.45
2023-12-27T19:25:21.797Z,2.05
2023-12-27T19:27:51.515Z,1.92
2023-12-27T19:30:19.867Z,1.70
2023-12-27T19:32:48.116Z,1.60
2023-12-27T19:35:18.432Z,2.05
2023-12-27T19:37:47.054Z,1.52
2023-12-27T19:40:16.549Z,2.03
2023-12-27T19:42:44.731Z,1.77
2023-12-27T19:45:14.558Z,1.73
2023-12-27T19:47:42.806Z,2.03
2023-12-27T19:50:12.860Z,1.70
2023-12-27T19:52:41.347Z,1.42
2023-12-27T19:55:13.467Z,1.50
2023-12-27T19:57:41.839Z,1.80
2023-12-27T20:00:11.122Z,1.45
2023-12-27T20:02:40.879Z,1.50
2023-12-27T20:05:09.622Z,1.60
2023-12-27T20:07:37.992Z,1.38
2023-12-27T20:10:06.756Z,1.65
2023-12-27T20:12:35.051Z,1.52
2023-12-27T20:15:05.594Z,1.60
2023-12-27T20:17:33.962Z,2.75
2023-12-27T20:20:03.617Z,2.85
2023-12-27T20:22:31.788Z,1.80
2023-12-27T20:25:00.298Z,2.28
2023-12-27T20:27:28.715Z,1.63
2023-12-27T20:29:57.021Z,1.70
2023-12-27T20:32:25.177Z,1.98
2023-12-27T20:34:53.998Z,1.90
2023-12-27T20:37:23.474Z,1.70
2023-12-27T20:39:52.546Z,1.52
2023-12-27T20:42:20.782Z,1.65
2023-12-27T20:44:48.974Z,2.05
2023-12-27T20:47:17.115Z,2.00
2023-12-27T20:49:46.633Z,1.80
2023-12-27T20:52:14.868Z,1.80
2023-12-27T20:54:44.449Z,2.10
2023-12-27T20:57:14.066Z,1.70
2023-12-27T20:59:42.502Z,1.60
2023-12-27T21:02:10.754Z,1.88
2023-12-27T21:04:39.030Z,2.05
2023-12-27T21:07:07.364Z,2.00
2023-12-27T21:09:35.597Z,1.80
2023-12-27T21:12:05.716Z,1.65
2023-12-27T21:14:33.970Z,1.40
2023-12-27T21:17:02.194Z,1.55
2023-12-27T21:19:32.202Z,2.03
2023-12-27T21:22:01.660Z,1.38
2023-12-27T21:24:29.798Z,1.50
2023-12-27T21:26:57.907Z,2.13
2023-12-27T21:29:27.461Z,2.00
2023-12-27T21:31:55.656Z,1.70
2023-12-27T21:34:23.931Z,1.65
2023-12-27T21:36:53.116Z,1.40
2023-12-27T21:39:21.348Z,1.75
2023-12-27T21:41:49.549Z,1.60
2023-12-27T21:44:17.717Z,1.83
2023-12-27T21:46:48.931Z,1.63
2023-12-27T21:49:17.322Z,1.80
2023-12-27T21:51:45.629Z,1.50
2023-12-27T21:54:14.338Z,1.63
2023-12-27T21:56:43.904Z,2.10
2023-12-27T21:59:12.313Z,2.28
2023-12-27T22:01:40.587Z,1.80
2023-12-27T22:04:10.422Z,1.95
2023-12-27T22:06:40.161Z,1.85
2023-12-27T22:09:08.492Z,1.73
2023-12-27T22:11:36.739Z,1.80
2023-12-27T22:14:07.016Z,1.85
2023-12-27T22:16:35.328Z,1.98
2023-12-27T22:19:03.641Z,1.60
2023-12-27T22:21:33.324Z,2.22
2023-12-27T22:24:01.474Z,2.15
2023-12-27T22:26:29.641Z,1.85
2023-12-27T22:28:57.833Z,2.08
2023-12-27T22:31:26.287Z,1.60
2023-12-27T22:33:54.753Z,1.73
2023-12-27T22:36:25.055Z,2.00
2023-12-27T22:38:55.988Z,2.17
2023-12-27T22:41:24.514Z,1.42
2023-12-27T22:43:52.958Z,2.10
2023-12-27T22:46:21.458Z,1.80
2023-12-27T22:48:50.058Z,1.67
2023-12-27T22:51:18.665Z,1.70
2023-12-27T22:53:46.895Z,2.30
2023-12-27T22:56:16.439Z,1.67
2023-12-27T22:58:44.589Z,1.90
2023-12-27T23:01:12.870Z,2.10
2023-12-27T23:03:41.127Z,1.73
2023-12-27T23:06:11.123Z,1.90
2023-12-27T23:08:39.345Z,1.45
2023-12-27T23:11:07.476Z,1.70
2023-12-27T23:13:36.976Z,2.05
2023-12-27T23:16:05.462Z,2.53
2023-12-27T23:18:33.953Z,2.15
2023-12-27T23:21:02.233Z,2.33
2023-12-27T23:23:30.385Z,1.83
2023-12-27T23:25:58.523Z,2.35
2023-12-27T23:28:26.782Z,2.40
2023-12-27T23:30:56.468Z,2.20
2023-12-27T23:33:26.352Z,1.95
2023-12-27T23:35:54.663Z,2.55
2023-12-27T23:38:22.918Z,1.73
2023-12-27T23:40:51.075Z,2.15
2023-12-27T23:43:19.248Z,2.20
2023-12-27T23:45:47.483Z,2.42
2023-12-27T23:48:17.225Z,2.13
2023-12-27T23:50:45.397Z,2.60
2023-12-27T23:53:13.736Z,2.20
2023-12-27T23:55:41.955Z,2.42
2023-12-27T23:58:10.108Z,2.22
